createdAt,value
2023-05-22T00:01:32.114Z,18.77
2023-05-22T00:03:59.802Z,18.52
2023-05-22T00:06:28.794Z,18.56
2023-05-22T00:08:57.233Z,19.31
2023-05-22T00:11:24.954Z,19.10
2023-05-22T00:13:52.830Z,18.52
2023-05-22T00:16:21.179Z,18.35
2023-05-22T00:18:48.878Z,18.22
2023-05-22T00:21:16.591Z,17.71
2023-05-22T00:23:46.061Z,17.05
2023-05-22T00:26:15.779Z,16.55
2023-05-22T00:28:43.457Z,16.63
2023-05-22T00:31:11.311Z,17.02
2023-05-22T00:33:38.962Z,17.24
2023-05-22T00:36:10.411Z,17.29
2023-05-22T00:38:38.083Z,17.28
2023-05-22T00:41:07.401Z,17.27
2023-05-22T00:43:41.445Z,17.16
2023-05-22T00:46:09.162Z,17.08
2023-05-22T00:48:37.676Z,17.09
2023-05-22T00:51:07.565Z,17.50
2023-05-22T00:53:35.973Z,17.26
2023-05-22T00:56:05.435Z,17.32
2023-05-22T00:58:34.425Z,17.38
2023-05-22T01:01:02.042Z,17.29
2023-05-22T01:03:29.807Z,17.06
2023-05-22T01:05:57.548Z,17.02
2023-05-22T01:08:25.434Z,17.41
2023-05-22T01:11:02.429Z,18.06
2023-05-22T01:13:42.839Z,18.14
2023-05-22T01:16:20.597Z,16.61
2023-05-22T01:18:59.844Z,15.73
2023-05-22T01:21:36.984Z,15.64
2023-05-22T01:24:39.026Z,16.28
2023-05-22T01:27:42.850Z,16.21
2023-05-22T01:30:26.755Z,15.89
2023-05-22T01:32:58.970Z,15.86
2023-05-22T01:35:29.042Z,15.62
2023-05-22T01:37:58.640Z,15.54
2023-05-22T01:40:28.295Z,15.56
2023-05-22T01:42:56.218Z,15.49
2023-05-22T01:45:24.186Z,15.47
2023-05-22T01:47:53.185Z,15.56
2023-05-22T01:50:23.368Z,16.20
2023-05-22T01:52:59.328Z,16.66
2023-05-22T01:55:34.119Z,15.83
2023-05-22T01:58:12.577Z,15.54
2023-05-22T02:00:45.686Z,15.48
2023-05-22T02:03:19.282Z,15.50
2023-05-22T02:05:54.092Z,15.69
2023-05-22T02:08:22.804Z,16.16
2023-05-22T02:10:54.730Z,16.05
2023-05-22T02:13:25.908Z,16.14
2023-05-22T02:15:55.589Z,16.46
2023-05-22T02:18:26.549Z,17.20
2023-05-22T02:20:55.638Z,17.40
2023-05-22T02:23:24.845Z,17.50
2023-05-22T02:25:52.477Z,17.44
2023-05-22T02:28:20.088Z,17.88
2023-05-22T02:30:48.103Z,17.05
2023-05-22T02:33:15.785Z,17.07
2023-05-22T02:35:43.957Z,17.67
2023-05-22T02:38:13.363Z,17.78
2023-05-22T02:40:42.219Z,17.32
2023-05-22T02:43:10.034Z,17.35
2023-05-22T02:45:37.617Z,17.20
2023-05-22T02:48:06.146Z,17.35
2023-05-22T02:50:34.036Z,17.39
2023-05-22T02:53:02.176Z,16.80
2023-05-22T02:55:31.272Z,16.39
2023-05-22T02:57:58.971Z,16.97
2023-05-22T03:00:26.802Z,16.82
2023-05-22T03:02:54.565Z,17.41
2023-05-22T03:05:22.380Z,17.31
2023-05-22T03:07:49.990Z,17.59
2023-05-22T03:10:17.644Z,17.30
2023-05-22T03:12:46.742Z,17.52
2023-05-22T03:15:14.412Z,17.40
2023-05-22T03:17:42.262Z,17.28
2023-05-22T03:20:10.780Z,17.59
2023-05-22T03:22:38.491Z,17.73
2023-05-22T03:25:07.814Z,17.88
2023-05-22T03:27:35.790Z,17.50
2023-05-22T03:30:06.684Z,16.83
2023-05-22T03:32:34.459Z,15.80
2023-05-22T03:35:02.127Z,16.23
2023-05-22T03:37:30.078Z,16.11
2023-05-22T03:39:57.717Z,16.09
2023-05-22T03:42:27.026Z,16.55
2023-05-22T03:44:54.618Z,16.42
2023-05-22T03:47:23.845Z,15.86
2023-05-22T03:49:52.040Z,15.96
2023-05-22T03:52:19.699Z,16.64
2023-05-22T03:54:47.435Z,17.00
2023-05-22T03:57:15.093Z,17.16
2023-05-22T03:59:42.824Z,17.14
2023-05-22T04:02:10.741Z,17.30
2023-05-22T04:04:39.988Z,17.35
2023-05-22T04:07:07.764Z,17.22
2023-05-22T04:09:35.903Z,17.21
2023-05-22T04:12:04.019Z,17.41
2023-05-22T04:14:31.778Z,17.35
2023-05-22T04:17:00.938Z,17.56
2023-05-22T04:19:28.615Z,17.63
2023-05-22T04:21:58.394Z,17.40
2023-05-22T04:24:27.695Z,17.27
2023-05-22T04:26:55.568Z,17.77
2023-05-22T04:29:23.789Z,17.66
2023-05-22T04:31:51.398Z,17.15
2023-05-22T04:34:19.293Z,17.17
2023-05-22T04:36:47.001Z,18.15
2023-05-22T04:39:18.873Z,17.65
2023-05-22T04:41:46.492Z,17.48
2023-05-22T04:44:14.264Z,17.40
2023-05-22T04:46:44.314Z,18.21
2023-05-22T04:49:12.065Z,18.44
2023-05-22T04:51:39.816Z,18.52
2023-05-22T04:54:07.734Z,18.54
2023-05-22T04:56:37.334Z,18.33
2023-05-22T04:59:05.731Z,18.17
2023-05-22T05:01:34.740Z,18.13
2023-05-22T05:04:02.625Z,17.46
2023-05-22T05:06:30.398Z,18.25
2023-05-22T05:08:58.060Z,17.86
2023-05-22T05:11:25.684Z,16.13
2023-05-22T05:13:54.782Z,15.96
2023-05-22T05:16:22.812Z,15.39
2023-05-22T05:18:51.003Z,15.13
2023-05-22T05:21:19.306Z,15.51
2023-05-22T05:23:47.191Z,16.22
2023-05-22T05:26:15.073Z,16.39
2023-05-22T05:28:42.989Z,17.32
2023-05-22T05:31:12.053Z,17.78
2023-05-22T05:33:39.805Z,17.41
2023-05-22T05:36:08.216Z,17.43
2023-05-22T05:38:36.930Z,17.54
2023-05-22T05:41:06.286Z,17.64
2023-05-22T05:43:33.998Z,17.62
2023-05-22T05:46:03.248Z,18.37
2023-05-22T05:48:35.671Z,18.93
2023-05-22T05:51:03.654Z,18.09
2023-05-22T05:53:31.666Z,17.60
2023-05-22T05:55:59.542Z,17.62
2023-05-22T05:58:27.223Z,18.02
2023-05-22T06:00:55.261Z,17.01
2023-05-22T06:03:22.937Z,17.01
2023-05-22T06:05:52.118Z,17.40
2023-05-22T06:08:19.948Z,18.33
2023-05-22T06:10:48.006Z,18.50
2023-05-22T06:13:15.956Z,17.92
2023-05-22T06:15:43.937Z,18.26
2023-05-22T06:18:11.898Z,18.70
2023-05-22T06:20:39.917Z,18.68
2023-05-22T06:23:09.306Z,18.75
2023-05-22T06:25:37.156Z,17.88
2023-05-22T06:28:05.275Z,18.54
2023-05-22T06:33:06.788Z,19.27
2023-05-22T06:35:34.516Z,18.31
2023-05-22T06:38:02.322Z,19.66
2023-05-22T06:40:31.343Z,20.60
2023-05-22T06:42:59.021Z,20.55
2023-05-22T06:45:26.962Z,19.96
2023-05-22T06:47:55.604Z,19.58
2023-05-22T06:50:23.324Z,21.35
2023-05-22T06:52:51.521Z,21.10
2023-05-22T06:55:19.567Z,20.86
2023-05-22T06:57:55.784Z,20.99
2023-05-22T07:00:26.582Z,22.15
2023-05-22T07:02:54.614Z,22.51
2023-05-22T07:05:26.763Z,20.75
2023-05-22T07:07:57.877Z,20.76
2023-05-22T07:10:25.715Z,21.56
2023-05-22T07:12:56.337Z,21.37
2023-05-22T07:15:25.991Z,22.87
2023-05-22T07:17:54.180Z,21.99
2023-05-22T07:20:23.123Z,22.05
2023-05-22T07:22:50.784Z,22.02
2023-05-22T07:25:18.661Z,21.10
2023-05-22T07:27:46.263Z,20.67
2023-05-22T07:30:15.596Z,22.00
2023-05-22T07:32:43.520Z,21.68
2023-05-22T07:35:11.578Z,21.53
2023-05-22T07:37:39.350Z,23.06
2023-05-22T07:40:08.204Z,22.96
2023-05-22T07:42:35.880Z,21.85
2023-05-22T07:45:04.152Z,21.52
2023-05-22T07:47:33.355Z,22.12
2023-05-22T07:50:01.148Z,22.83
2023-05-22T07:52:28.954Z,22.55
2023-05-22T07:54:56.727Z,22.70
2023-05-22T07:57:24.825Z,23.95
2023-05-22T07:59:52.461Z,22.91
2023-05-22T08:02:20.144Z,23.76
2023-05-22T08:04:49.470Z,22.58
2023-05-22T08:07:17.187Z,21.35
2023-05-22T08:09:44.900Z,21.65
2023-05-22T08:12:12.570Z,20.69
2023-05-22T08:14:42.410Z,21.78
2023-05-22T08:17:10.069Z,22.02
2023-05-22T08:19:37.923Z,20.26
2023-05-22T08:22:07.251Z,21.98
2023-05-22T08:24:35.113Z,21.17
2023-05-22T08:27:02.774Z,21.88
2023-05-22T08:29:30.638Z,20.90
2023-05-22T08:31:58.384Z,22.07
2023-05-22T08:34:26.276Z,22.18
2023-05-22T08:36:54.033Z,20.37
2023-05-22T08:39:23.291Z,19.88
2023-05-22T08:41:51.215Z,18.33
2023-05-22T08:44:18.930Z,19.06
2023-05-22T08:46:47.777Z,18.70
2023-05-22T08:49:17.553Z,18.49
2023-05-22T08:51:52.621Z,19.33
2023-05-22T08:54:24.687Z,20.76
2023-05-22T08:56:57.205Z,21.12
2023-05-22T08:59:25.795Z,21.20
2023-05-22T09:01:54.652Z,19.80
2023-05-22T09:04:24.398Z,19.94
2023-05-22T09:06:53.120Z,19.64
2023-05-22T09:09:20.907Z,21.65
2023-05-22T09:11:55.406Z,22.21
2023-05-22T09:14:25.353Z,21.48
2023-05-22T09:16:53.164Z,22.85
2023-05-22T09:19:20.974Z,22.51
2023-05-22T09:21:48.720Z,22.11
2023-05-22T09:24:16.299Z,21.45
2023-05-22T09:26:43.991Z,20.83
2023-05-22T09:29:13.309Z,21.14
2023-05-22T09:31:42.968Z,21.52
2023-05-22T09:34:11.794Z,22.18
2023-05-22T09:36:39.938Z,22.69
2023-05-22T09:39:07.845Z,21.44
2023-05-22T09:41:37.588Z,20.76
2023-05-22T09:44:17.348Z,22.05
2023-05-22T09:46:46.751Z,22.86
2023-05-22T09:49:16.400Z,22.74
2023-05-22T09:51:46.087Z,22.24
2023-05-22T09:54:15.947Z,23.04
2023-05-22T09:56:49.973Z,22.78
2023-05-22T09:59:21.779Z,22.84
2023-05-22T10:01:50.502Z,23.11
2023-05-22T10:04:19.142Z,22.44
2023-05-22T10:06:51.908Z,22.53
2023-05-22T10:09:24.700Z,22.25
2023-05-22T10:11:57.276Z,19.83
2023-05-22T10:14:28.789Z,19.70
2023-05-22T10:16:58.224Z,21.97
2023-05-22T10:19:29.285Z,22.37
2023-05-22T10:22:00.643Z,23.24
2023-05-22T10:24:29.422Z,22.11
2023-05-22T10:26:57.906Z,23.82
2023-05-22T10:29:36.120Z,23.13
2023-05-22T10:32:13.080Z,23.92
2023-05-22T10:34:52.232Z,24.24
2023-05-22T10:37:42.516Z,23.12
2023-05-22T10:40:15.033Z,22.67
2023-05-22T10:42:44.024Z,24.55
2023-05-22T10:45:13.678Z,24.41
2023-05-22T10:47:42.298Z,24.73
2023-05-22T10:50:11.778Z,23.03
2023-05-22T10:52:40.230Z,24.32
2023-05-22T10:55:09.758Z,23.26
2023-05-22T10:57:39.083Z,24.51
2023-05-22T11:00:09.513Z,23.99
2023-05-22T11:02:43.786Z,24.02
2023-05-22T11:05:39.007Z,25.42
2023-05-22T11:08:46.421Z,24.07
2023-05-22T11:11:14.411Z,25.08
2023-05-22T11:13:42.329Z,23.39
2023-05-22T11:16:10.104Z,21.55
2023-05-22T11:18:39.420Z,21.35
2023-05-22T11:21:10.786Z,22.82
2023-05-22T11:23:39.147Z,24.08
2023-05-22T11:26:18.769Z,25.26
2023-05-22T11:28:49.616Z,24.55
2023-05-22T11:31:18.148Z,23.84
2023-05-22T11:33:47.390Z,24.28
2023-05-22T11:36:16.189Z,23.76
2023-05-22T11:38:44.379Z,24.19
2023-05-22T11:41:13.070Z,24.79
2023-05-22T11:43:43.881Z,25.26
2023-05-22T11:46:12.228Z,25.06
2023-05-22T11:48:43.622Z,25.66
2023-05-22T11:51:12.695Z,24.58
2023-05-22T11:53:41.484Z,24.04
2023-05-22T11:56:09.101Z,24.00
2023-05-22T11:58:36.721Z,23.38
2023-05-22T12:01:04.688Z,22.98
2023-05-22T12:03:32.886Z,23.66
2023-05-22T12:06:01.951Z,24.04
2023-05-22T12:08:31.397Z,24.48
2023-05-22T12:10:59.712Z,24.76
2023-05-22T12:13:30.229Z,24.39
2023-05-22T12:15:59.583Z,23.50
2023-05-22T12:18:27.615Z,24.08
2023-05-22T12:20:56.169Z,25.10
2023-05-22T12:23:25.013Z,25.23
2023-05-22T12:26:01.937Z,25.03
2023-05-22T12:28:31.802Z,25.51
2023-05-22T12:31:00.148Z,26.23
2023-05-22T12:33:28.785Z,25.36
2023-05-22T12:35:57.417Z,25.32
2023-05-22T12:38:28.363Z,25.55
2023-05-22T12:40:57.242Z,24.94
2023-05-22T12:43:26.236Z,24.78
2023-05-22T12:45:54.262Z,24.31
2023-05-22T12:48:21.926Z,23.65
2023-05-22T12:50:49.877Z,24.42
2023-05-22T12:53:17.639Z,25.10
2023-05-22T12:55:48.309Z,24.51
2023-05-22T12:58:16.226Z,24.98
2023-05-22T13:00:45.197Z,24.73
2023-05-22T13:03:13.017Z,25.66
2023-05-22T13:05:40.900Z,24.83
2023-05-22T13:08:10.453Z,24.82
2023-05-22T13:10:38.408Z,25.27
2023-05-22T13:13:06.098Z,25.86
2023-05-22T13:15:33.861Z,25.20
2023-05-22T13:18:05.999Z,25.18
2023-05-22T13:20:34.802Z,25.01
2023-05-22T13:23:05.194Z,26.29
2023-05-22T13:25:33.414Z,25.81
2023-05-22T13:28:01.630Z,26.18
2023-05-22T13:30:29.377Z,26.31
2023-05-22T13:32:57.109Z,25.32
2023-05-22T13:35:26.404Z,25.49
2023-05-22T13:37:54.154Z,25.11
2023-05-22T13:40:23.255Z,24.40
2023-05-22T13:42:51.882Z,25.41
2023-05-22T13:45:19.888Z,24.45
2023-05-22T13:47:52.272Z,25.74
2023-05-22T13:50:20.381Z,25.83
2023-05-22T13:52:50.419Z,26.48
2023-05-22T13:55:18.209Z,23.79
2023-05-22T13:57:45.849Z,25.92
2023-05-22T14:00:14.606Z,26.57
2023-05-22T14:02:42.323Z,26.80
2023-05-22T14:05:10.345Z,26.92
2023-05-22T14:07:38.519Z,23.66
2023-05-22T14:10:09.335Z,25.47
2023-05-22T14:12:37.477Z,25.51
2023-05-22T14:15:06.490Z,25.81
2023-05-22T14:17:34.414Z,26.55
2023-05-22T14:20:02.875Z,25.58
2023-05-22T14:22:32.727Z,26.17
2023-05-22T14:25:04.550Z,27.00
2023-05-22T14:27:34.035Z,26.81
2023-05-22T14:30:01.941Z,26.46
2023-05-22T14:32:30.080Z,27.03
2023-05-22T14:34:57.764Z,26.64
2023-05-22T14:37:25.318Z,27.16
2023-05-22T14:39:53.158Z,26.99
2023-05-22T14:42:20.834Z,27.20
2023-05-22T14:44:49.797Z,29.08
2023-05-22T14:47:17.389Z,29.95
2023-05-22T14:49:45.080Z,30.63
2023-05-22T14:52:14.016Z,28.98
2023-05-22T14:54:41.634Z,28.48
2023-05-22T14:57:09.196Z,27.72
2023-05-22T14:59:36.764Z,27.41
2023-05-22T15:02:06.650Z,27.84
2023-05-22T15:04:34.438Z,28.30
2023-05-22T15:07:02.157Z,29.00
2023-05-22T15:09:29.788Z,28.71
2023-05-22T15:11:57.600Z,27.30
2023-05-22T15:14:25.183Z,26.65
2023-05-22T15:16:52.818Z,27.40
2023-05-22T15:19:21.895Z,27.44
2023-05-22T15:21:49.688Z,27.81
2023-05-22T15:24:17.847Z,27.88
2023-05-22T15:26:45.932Z,28.47
2023-05-22T15:29:14.593Z,28.14
2023-05-22T15:31:42.518Z,28.46
2023-05-22T15:34:10.501Z,27.11
2023-05-22T15:36:39.513Z,26.97
2023-05-22T15:39:07.879Z,27.97
2023-05-22T15:41:35.522Z,27.76
2023-05-22T15:44:03.180Z,27.33
2023-05-22T15:46:31.076Z,27.78
2023-05-22T15:48:58.763Z,27.59
2023-05-22T15:51:26.412Z,27.68
2023-05-22T15:53:56.971Z,28.01
2023-05-22T15:56:24.717Z,28.74
2023-05-22T15:58:52.591Z,28.91
2023-05-22T16:01:20.297Z,29.13
2023-05-22T16:03:48.168Z,29.45
2023-05-22T16:06:16.370Z,29.80
2023-05-22T16:08:44.087Z,29.53
2023-05-22T16:11:13.058Z,29.85
2023-05-22T16:13:40.803Z,29.46
2023-05-22T16:16:08.708Z,28.97
2023-05-22T16:18:36.335Z,27.88
2023-05-22T16:21:04.645Z,28.14
2023-05-22T16:23:33.777Z,27.88
2023-05-22T16:26:01.654Z,27.97
2023-05-22T16:28:30.582Z,27.43
2023-05-22T16:30:58.505Z,26.65
2023-05-22T16:33:27.096Z,25.83
2023-05-22T16:35:55.069Z,25.74
2023-05-22T16:38:22.736Z,25.97
2023-05-22T16:40:50.393Z,25.75
2023-05-22T16:43:19.178Z,24.49
2023-05-22T16:45:48.187Z,24.50
2023-05-22T16:48:15.893Z,24.60
2023-05-22T16:50:43.730Z,25.27
2023-05-22T16:53:11.523Z,24.06
2023-05-22T16:55:39.601Z,22.09
2023-05-22T16:58:07.505Z,20.30
2023-05-22T17:00:36.409Z,19.51
2023-05-22T17:03:06.175Z,19.12
2023-05-22T17:05:34.516Z,18.76
2023-05-22T17:08:02.198Z,18.89
2023-05-22T17:10:30.136Z,18.89
2023-05-22T17:12:58.105Z,19.08
2023-05-22T17:15:25.763Z,19.73
2023-05-22T17:17:53.605Z,20.34
2023-05-22T17:20:23.362Z,20.87
2023-05-22T17:22:51.402Z,20.63
2023-05-22T17:25:19.514Z,20.26
2023-05-22T17:27:47.122Z,20.07
2023-05-22T17:30:14.883Z,19.99
2023-05-22T17:32:42.764Z,20.02
2023-05-22T17:35:10.645Z,20.00
2023-05-22T17:37:39.641Z,20.01
2023-05-22T17:40:08.921Z,20.14
2023-05-22T17:42:36.480Z,20.18
2023-05-22T17:45:06.413Z,18.89
2023-05-22T17:47:34.611Z,18.60
2023-05-22T17:50:05.635Z,18.72
2023-05-22T17:52:33.295Z,18.93
2023-05-22T17:55:02.668Z,19.29
2023-05-22T17:57:30.631Z,19.89
2023-05-22T17:59:58.330Z,20.21
2023-05-22T18:02:26.162Z,20.09
2023-05-22T18:04:53.913Z,19.61
2023-05-22T18:07:21.835Z,19.20
2023-05-22T18:09:49.530Z,19.13
2023-05-22T18:12:31.042Z,19.15
2023-05-22T18:14:59.733Z,18.90
2023-05-22T18:17:27.605Z,18.90
2023-05-22T18:19:55.200Z,19.05
2023-05-22T18:22:22.894Z,19.05
2023-05-22T18:24:50.578Z,19.16
2023-05-22T18:27:19.599Z,19.43
2023-05-22T18:29:47.212Z,19.64
2023-05-22T18:32:14.824Z,19.81
2023-05-22T18:34:42.511Z,19.88
2023-05-22T18:37:12.418Z,19.93
2023-05-22T18:39:40.024Z,19.84
2023-05-22T18:42:07.967Z,19.85
2023-05-22T18:44:36.933Z,19.83
2023-05-22T18:47:05.228Z,19.99
2023-05-22T18:49:33.072Z,19.90
2023-05-22T18:52:00.704Z,20.06
2023-05-22T18:54:28.470Z,20.18
2023-05-22T18:56:56.321Z,20.39
2023-05-22T18:59:23.989Z,20.80
2023-05-22T19:01:53.031Z,20.57
2023-05-22T19:04:20.965Z,20.81
2023-05-22T19:06:48.679Z,20.80
2023-05-22T19:09:16.304Z,20.79
2023-05-22T19:11:43.886Z,21.40
2023-05-22T19:14:11.591Z,21.93
2023-05-22T19:16:40.645Z,21.55
2023-05-22T19:19:09.725Z,21.04
2023-05-22T19:21:37.409Z,21.22
2023-05-22T19:24:08.784Z,21.22
2023-05-22T19:26:36.459Z,21.75
2023-05-22T19:29:04.138Z,21.28
2023-05-22T19:31:31.874Z,21.60
2023-05-22T19:33:59.580Z,21.53
2023-05-22T19:36:28.542Z,21.14
2023-05-22T19:38:56.551Z,21.03
2023-05-22T19:41:24.220Z,20.84
2023-05-22T19:43:52.005Z,20.94
2023-05-22T19:46:19.635Z,21.21
2023-05-22T19:48:48.656Z,20.56
2023-05-22T19:51:16.278Z,20.50
2023-05-22T19:53:46.742Z,20.86
2023-05-22T19:56:15.418Z,20.85
2023-05-22T19:58:43.092Z,20.56
2023-05-22T20:01:11.780Z,20.71
2023-05-22T20:03:39.564Z,20.61
2023-05-22T20:06:07.342Z,19.57
2023-05-22T20:08:35.051Z,18.79
2023-05-22T20:11:04.123Z,18.70
2023-05-22T20:13:31.999Z,18.40
2023-05-22T20:15:59.770Z,18.49
2023-05-22T20:18:27.471Z,18.67
2023-05-22T20:20:55.735Z,18.62
2023-05-22T20:23:23.443Z,18.66
2023-05-22T20:25:51.161Z,18.71
2023-05-22T20:28:20.093Z,19.57
2023-05-22T20:30:48.044Z,19.75
2023-05-22T20:33:15.763Z,20.22
2023-05-22T20:35:43.889Z,20.53
2023-05-22T20:38:11.712Z,20.45
2023-05-22T20:40:39.853Z,20.33
2023-05-22T20:43:07.620Z,20.29
2023-05-22T20:45:36.716Z,19.73
2023-05-22T20:48:04.543Z,19.37
2023-05-22T20:50:32.307Z,19.55
2023-05-22T20:53:03.541Z,20.32
2023-05-22T20:55:33.790Z,19.99
2023-05-22T20:58:03.328Z,20.21
2023-05-22T21:00:31.084Z,20.62
2023-05-22T21:03:00.213Z,20.60
2023-05-22T21:05:27.925Z,20.36
2023-05-22T21:07:55.607Z,19.69
2023-05-22T21:10:23.310Z,19.84
2023-05-22T21:12:50.964Z,19.45
2023-05-22T21:15:18.815Z,19.27
2023-05-22T21:17:46.595Z,19.56
2023-05-22T21:20:15.959Z,19.15
2023-05-22T21:22:43.742Z,19.60
2023-05-22T21:25:11.411Z,20.04
2023-05-22T21:27:39.093Z,19.98
2023-05-22T21:30:08.156Z,19.33
2023-05-22T21:32:35.774Z,19.90
2023-05-22T21:35:03.698Z,19.21
2023-05-22T21:37:32.791Z,19.14
2023-05-22T21:40:03.357Z,19.03
2023-05-22T21:42:44.585Z,18.92
2023-05-22T21:45:13.263Z,19.10
2023-05-22T21:47:41.429Z,19.27
2023-05-22T21:50:10.167Z,19.72
2023-05-22T21:52:39.609Z,20.05
2023-05-22T21:55:08.480Z,20.52
2023-05-22T21:57:36.310Z,20.47
2023-05-22T22:00:04.262Z,20.25
2023-05-22T22:02:31.976Z,19.73
2023-05-22T22:04:59.656Z,19.84
2023-05-22T22:07:27.228Z,19.48
2023-05-22T22:09:56.321Z,19.13
2023-05-22T22:12:23.973Z,19.92
2023-05-22T22:14:51.664Z,19.87
2023-05-22T22:17:19.345Z,20.02
2023-05-22T22:19:46.990Z,20.51
2023-05-22T22:22:14.934Z,20.74
2023-05-22T22:24:42.784Z,20.59
2023-05-22T22:27:11.892Z,20.53
2023-05-22T22:29:39.585Z,20.56
2023-05-22T22:32:07.634Z,20.16
2023-05-22T22:34:35.354Z,20.14
2023-05-22T22:37:03.043Z,19.33
2023-05-22T22:39:30.794Z,18.96
2023-05-22T22:41:58.510Z,18.75
2023-05-22T22:44:27.689Z,18.79
2023-05-22T22:46:55.387Z,18.35
2023-05-22T22:49:23.040Z,18.08
2023-05-22T22:51:50.611Z,17.87
2023-05-22T22:54:18.209Z,18.03
2023-05-22T22:56:46.964Z,18.15
2023-05-22T22:59:14.645Z,18.33
2023-05-22T23:01:44.166Z,18.57
2023-05-22T23:04:12.124Z,18.32
2023-05-22T23:06:42.223Z,17.59
2023-05-22T23:09:10.112Z,18.46
2023-05-22T23:11:38.025Z,18.99
2023-05-22T23:14:07.075Z,18.70
2023-05-22T23:16:35.364Z,17.59
2023-05-22T23:19:05.298Z,17.03
2023-05-22T23:21:34.218Z,16.73
2023-05-22T23:24:04.173Z,16.99
2023-05-22T23:26:32.257Z,17.19
2023-05-22T23:29:00.522Z,17.13
2023-05-22T23:31:28.415Z,17.09
2023-05-22T23:33:56.403Z,17.31
2023-05-22T23:36:25.926Z,17.42
2023-05-22T23:38:53.639Z,17.59
2023-05-22T23:41:21.452Z,18.00
2023-05-22T23:43:49.131Z,18.10
2023-05-22T23:46:16.980Z,18.46
2023-05-22T23:48:44.626Z,18.56
2023-05-22T23:51:12.394Z,18.35
2023-05-22T23:53:44.755Z,17.41
2023-05-22T23:56:12.514Z,17.92
2023-05-22T23:58:40.189Z,17.91
